createdAt,value
2023-01-08T00:00:24.000Z,5
2023-01-08T00:01:40.000Z,5
2023-01-08T00:02:56.000Z,5
2023-01-08T00:04:12.000Z,5
2023-01-08T00:05:28.000Z,5
2023-01-08T00:06:45.000Z,5
2023-01-08T00:08:01.000Z,5
2023-01-08T00:09:17.000Z,5
2023-01-08T00:10:33.000Z,5
2023-01-08T00:11:49.000Z,5
2023-01-08T00:13:06.000Z,5
2023-01-08T00:14:22.000Z,5
2023-01-08T00:15:38.000Z,5
2023-01-08T00:16:53.000Z,5
2023-01-08T00:18:09.000Z,5
2023-01-08T00:19:25.000Z,5
2023-01-08T00:20:40.000Z,5
2023-01-08T00:21:55.000Z,5
2023-01-08T00:23:12.000Z,5
2023-01-08T00:24:28.000Z,5
2023-01-08T00:25:44.000Z,5
2023-01-08T00:27:00.000Z,5
2023-01-08T00:28:17.000Z,5
2023-01-08T00:29:33.000Z,5
2023-01-08T00:30:49.000Z,5
2023-01-08T00:32:05.000Z,5
2023-01-08T00:33:22.000Z,5
2023-01-08T00:34:38.000Z,5
2023-01-08T00:35:54.000Z,5
2023-01-08T00:37:10.000Z,5
2023-01-08T00:38:25.000Z,5
2023-01-08T00:39:42.000Z,5
2023-01-08T00:40:58.000Z,5
2023-01-08T00:42:14.000Z,5
2023-01-08T00:43:30.000Z,5
2023-01-08T00:44:47.000Z,5
2023-01-08T00:46:03.000Z,5
2023-01-08T00:47:18.000Z,5
2023-01-08T00:48:33.000Z,5
2023-01-08T00:49:49.000Z,5
2023-01-08T00:51:04.000Z,5
2023-01-08T00:52:20.000Z,5
2023-01-08T00:53:36.000Z,5
2023-01-08T00:54:53.000Z,5
2023-01-08T00:56:09.000Z,5
2023-01-08T00:57:25.000Z,5
2023-01-08T00:58:41.000Z,5
2023-01-08T00:59:58.000Z,5
2023-01-08T01:01:14.000Z,5
2023-01-08T01:02:30.000Z,5
2023-01-08T01:03:46.000Z,5
2023-01-08T01:05:02.000Z,5
2023-01-08T01:06:19.000Z,5
2023-01-08T01:07:34.000Z,5
2023-01-08T01:08:50.000Z,5
2023-01-08T01:10:06.000Z,5
2023-01-08T01:11:23.000Z,5
2023-01-08T01:12:39.000Z,5
2023-01-08T01:13:55.000Z,5
2023-01-08T01:15:11.000Z,5
2023-01-08T01:16:28.000Z,5
2023-01-08T01:17:44.000Z,5
2023-01-08T01:19:00.000Z,5
2023-01-08T01:20:16.000Z,5
2023-01-08T01:21:33.000Z,5
2023-01-08T01:22:49.000Z,5
2023-01-08T01:24:04.000Z,5
2023-01-08T01:25:19.000Z,5
2023-01-08T01:26:35.000Z,5
2023-01-08T01:27:50.000Z,5
2023-01-08T01:29:05.000Z,5
2023-01-08T01:30:21.000Z,5
2023-01-08T01:31:38.000Z,5
2023-01-08T01:32:54.000Z,5
2023-01-08T01:34:10.000Z,5
2023-01-08T01:35:26.000Z,5
2023-01-08T01:36:42.000Z,5
2023-01-08T01:37:59.000Z,5
2023-01-08T01:39:15.000Z,5
2023-01-08T01:40:31.000Z,5
2023-01-08T01:41:47.000Z,5
2023-01-08T01:43:04.000Z,5
2023-01-08T01:44:20.000Z,5
2023-01-08T01:45:35.000Z,5
2023-01-08T01:46:51.000Z,5
2023-01-08T01:48:08.000Z,5
2023-01-08T01:49:24.000Z,5
2023-01-08T01:50:40.000Z,5
2023-01-08T01:51:56.000Z,5
2023-01-08T01:53:12.000Z,5
2023-01-08T01:54:28.000Z,5
2023-01-08T01:55:43.000Z,5
2023-01-08T01:56:58.000Z,5
2023-01-08T01:58:14.000Z,5
2023-01-08T01:59:30.000Z,5
2023-01-08T02:00:46.000Z,5
2023-01-08T02:02:02.000Z,5
2023-01-08T02:03:18.000Z,5
2023-01-08T02:04:35.000Z,5
2023-01-08T02:05:51.000Z,5
2023-01-08T02:07:07.000Z,5
2023-01-08T02:08:23.000Z,5
2023-01-08T02:09:40.000Z,5
2023-01-08T02:10:56.000Z,5
2023-01-08T02:12:12.000Z,5
2023-01-08T02:13:28.000Z,5
2023-01-08T02:14:44.000Z,5
2023-01-08T02:16:00.000Z,5
2023-01-08T02:17:16.000Z,5
2023-01-08T02:18:32.000Z,5
2023-01-08T02:19:49.000Z,5
2023-01-08T02:21:05.000Z,5
2023-01-08T02:22:21.000Z,5
2023-01-08T02:23:36.000Z,5
2023-01-08T02:24:52.000Z,5
2023-01-08T02:26:08.000Z,5
2023-01-08T02:27:23.000Z,5
2023-01-08T02:28:38.000Z,5
2023-01-08T02:29:54.000Z,5
2023-01-08T02:31:11.000Z,5
2023-01-08T02:32:27.000Z,5
2023-01-08T02:33:43.000Z,5
2023-01-08T02:34:59.000Z,5
2023-01-08T02:36:16.000Z,5
2023-01-08T02:37:32.000Z,5
2023-01-08T02:38:48.000Z,5
2023-01-08T02:40:04.000Z,5
2023-01-08T02:41:21.000Z,5
2023-01-08T02:42:37.000Z,5
2023-01-08T02:43:53.000Z,5
2023-01-08T02:45:08.000Z,5
2023-01-08T02:46:25.000Z,5
2023-01-08T02:47:41.000Z,5
2023-01-08T02:48:57.000Z,5
2023-01-08T02:50:13.000Z,5
2023-01-08T02:51:29.000Z,5
2023-01-08T02:52:46.000Z,5
2023-01-08T02:54:01.000Z,5
2023-01-08T02:55:16.000Z,5
2023-01-08T02:56:31.000Z,5
2023-01-08T02:57:47.000Z,5
2023-01-08T02:59:03.000Z,5
2023-01-08T03:00:19.000Z,5
2023-01-08T03:01:35.000Z,5
2023-01-08T03:02:52.000Z,5
2023-01-08T03:04:08.000Z,5
2023-01-08T03:05:24.000Z,5
2023-01-08T03:06:40.000Z,5
2023-01-08T03:07:57.000Z,5
2023-01-08T03:09:13.000Z,5
2023-01-08T03:10:29.000Z,5
2023-01-08T03:11:45.000Z,5
2023-01-08T03:13:02.000Z,5
2023-01-08T03:14:17.000Z,5
2023-01-08T03:15:33.000Z,5
2023-01-08T03:16:49.000Z,5
2023-01-08T03:18:05.000Z,5
2023-01-08T03:19:22.000Z,5
2023-01-08T03:20:38.000Z,5
2023-01-08T03:21:54.000Z,5
2023-01-08T03:23:09.000Z,5
2023-01-08T03:24:25.000Z,5
2023-01-08T03:25:41.000Z,5
2023-01-08T03:26:56.000Z,5
2023-01-08T03:28:11.000Z,5
2023-01-08T03:29:28.000Z,5
2023-01-08T03:30:44.000Z,5
2023-01-08T03:32:00.000Z,5
2023-01-08T03:33:16.000Z,5
2023-01-08T03:34:33.000Z,5
2023-01-08T03:35:49.000Z,5
2023-01-08T03:37:05.000Z,5
2023-01-08T03:38:21.000Z,5
2023-01-08T03:39:38.000Z,5
2023-01-08T03:40:54.000Z,5
2023-01-08T03:42:10.000Z,5
2023-01-08T03:43:26.000Z,5
2023-01-08T03:44:42.000Z,5
2023-01-08T03:45:58.000Z,5
2023-01-08T03:47:14.000Z,5
2023-01-08T03:48:30.000Z,5
2023-01-08T03:49:46.000Z,5
2023-01-08T03:51:03.000Z,5
2023-01-08T03:52:19.000Z,5
2023-01-08T03:53:34.000Z,5
2023-01-08T03:54:49.000Z,5
2023-01-08T03:56:06.000Z,5
2023-01-08T03:57:21.000Z,5
2023-01-08T03:58:36.000Z,5
2023-01-08T03:59:52.000Z,5
2023-01-08T04:01:09.000Z,5
2023-01-08T04:02:25.000Z,5
2023-01-08T04:03:41.000Z,5
2023-01-08T04:04:57.000Z,5
2023-01-08T04:06:14.000Z,5
2023-01-08T04:07:30.000Z,5
2023-01-08T04:08:46.000Z,5
2023-01-08T04:10:02.000Z,5
2023-01-08T04:11:19.000Z,5
2023-01-08T04:12:35.000Z,5
2023-01-08T04:13:51.000Z,5
2023-01-08T04:15:06.000Z,5
2023-01-08T04:16:21.000Z,5
2023-01-08T04:17:38.000Z,5
2023-01-08T04:18:54.000Z,5
2023-01-08T04:20:10.000Z,5
2023-01-08T04:21:26.000Z,5
2023-01-08T04:22:43.000Z,5
2023-01-08T04:23:58.000Z,5
2023-01-08T04:25:13.000Z,5
2023-01-08T04:26:29.000Z,5
2023-01-08T04:27:45.000Z,5
2023-01-08T04:29:00.000Z,5
2023-01-08T04:30:16.000Z,5
2023-01-08T04:31:32.000Z,5
2023-01-08T04:32:49.000Z,5
2023-01-08T04:34:05.000Z,5
2023-01-08T04:35:21.000Z,5
2023-01-08T04:36:37.000Z,5
2023-01-08T04:37:54.000Z,5
2023-01-08T04:39:10.000Z,5
2023-01-08T04:40:26.000Z,5
2023-01-08T04:41:42.000Z,5
2023-01-08T04:42:58.000Z,5
2023-01-08T04:44:15.000Z,5
2023-01-08T04:45:30.000Z,5
2023-01-08T04:46:46.000Z,5
2023-01-08T04:48:02.000Z,5
2023-01-08T04:49:19.000Z,5
2023-01-08T04:50:35.000Z,5
2023-01-08T04:51:51.000Z,5
2023-01-08T04:53:07.000Z,5
2023-01-08T04:54:23.000Z,5
2023-01-08T04:55:39.000Z,5
2023-01-08T04:56:54.000Z,5
2023-01-08T04:58:10.000Z,5
2023-01-08T04:59:26.000Z,5
2023-01-08T05:00:41.000Z,5
2023-01-08T05:01:57.000Z,5
2023-01-08T05:03:13.000Z,5
2023-01-08T05:04:30.000Z,5
2023-01-08T05:05:46.000Z,5
2023-01-08T05:07:02.000Z,5
2023-01-08T05:08:18.000Z,5
2023-01-08T05:09:35.000Z,5
2023-01-08T05:10:51.000Z,5
2023-01-08T05:12:07.000Z,5
2023-01-08T05:13:23.000Z,5
2023-01-08T05:14:39.000Z,5
2023-01-08T05:15:56.000Z,5
2023-01-08T05:17:11.000Z,5
2023-01-08T05:18:27.000Z,5
2023-01-08T05:19:43.000Z,5
2023-01-08T05:21:00.000Z,5
2023-01-08T05:22:16.000Z,5
2023-01-08T05:23:32.000Z,5
2023-01-08T05:24:48.000Z,5
2023-01-08T05:26:04.000Z,5
2023-01-08T05:27:19.000Z,5
2023-01-08T05:28:35.000Z,5
2023-01-08T05:29:51.000Z,5
2023-01-08T05:31:08.000Z,5
2023-01-08T05:32:24.000Z,5
2023-01-08T05:33:40.000Z,5
2023-01-08T05:34:56.000Z,5
2023-01-08T05:36:12.000Z,5
2023-01-08T05:37:29.000Z,5
2023-01-08T05:38:45.000Z,5
2023-01-08T05:40:01.000Z,5
2023-01-08T05:41:17.000Z,5
2023-01-08T05:42:34.000Z,5
2023-01-08T05:43:49.000Z,5
2023-01-08T05:45:05.000Z,5
2023-01-08T05:46:21.000Z,5
2023-01-08T05:47:38.000Z,5
2023-01-08T05:48:54.000Z,5
2023-01-08T05:50:10.000Z,5
2023-01-08T05:51:26.000Z,5
2023-01-08T05:52:42.000Z,5
2023-01-08T05:53:57.000Z,5
2023-01-08T05:55:12.000Z,5
2023-01-08T05:56:27.000Z,5
2023-01-08T05:57:44.000Z,5
2023-01-08T05:58:59.000Z,5
2023-01-08T06:00:14.000Z,5
2023-01-08T06:01:30.000Z,5
2023-01-08T06:02:47.000Z,5
2023-01-08T06:04:03.000Z,5
2023-01-08T06:05:19.000Z,5
2023-01-08T06:06:35.000Z,5
2023-01-08T06:07:51.000Z,5
2023-01-08T06:09:08.000Z,5
2023-01-08T06:10:24.000Z,5
2023-01-08T06:11:40.000Z,5
2023-01-08T06:12:56.000Z,5
2023-01-08T06:14:13.000Z,5
2023-01-08T06:15:29.000Z,5
2023-01-08T06:16:44.000Z,5
2023-01-08T06:18:00.000Z,5
2023-01-08T06:19:17.000Z,5
2023-01-08T06:20:33.000Z,5
2023-01-08T06:21:49.000Z,5
2023-01-08T06:23:05.000Z,5
2023-01-08T06:24:22.000Z,5
2023-01-08T06:25:37.000Z,5
2023-01-08T06:26:52.000Z,5
2023-01-08T06:28:08.000Z,5
2023-01-08T06:29:24.000Z,5
2023-01-08T06:30:39.000Z,5
2023-01-08T06:31:55.000Z,5
2023-01-08T06:33:11.000Z,5
2023-01-08T06:34:28.000Z,5
2023-01-08T06:35:44.000Z,5
2023-01-08T06:37:00.000Z,5
2023-01-08T06:38:16.000Z,5
2023-01-08T06:39:32.000Z,5
2023-01-08T06:40:49.000Z,5
2023-01-08T06:42:05.000Z,5
2023-01-08T06:43:21.000Z,5
2023-01-08T06:44:37.000Z,5
2023-01-08T06:45:54.000Z,5
2023-01-08T06:47:09.000Z,5
2023-01-08T06:48:25.000Z,5
2023-01-08T06:49:41.000Z,5
2023-01-08T06:50:58.000Z,5
2023-01-08T06:52:14.000Z,5
2023-01-08T06:53:30.000Z,5
2023-01-08T06:54:46.000Z,5
2023-01-08T06:56:02.000Z,5
2023-01-08T06:57:17.000Z,5
2023-01-08T06:58:33.000Z,5
2023-01-08T06:59:48.000Z,5
2023-01-08T07:01:04.000Z,5
2023-01-08T07:02:20.000Z,5
2023-01-08T07:03:36.000Z,5
2023-01-08T07:04:52.000Z,5
2023-01-08T07:06:08.000Z,5
2023-01-08T07:07:25.000Z,5
2023-01-08T07:08:41.000Z,5
2023-01-08T07:09:57.000Z,5
2023-01-08T07:11:13.000Z,5
2023-01-08T07:12:30.000Z,5
2023-01-08T07:13:46.000Z,5
2023-01-08T07:15:02.000Z,5
2023-01-08T07:16:18.000Z,5
2023-01-08T07:17:34.000Z,5
2023-01-08T07:18:50.000Z,5
2023-01-08T07:20:06.000Z,5
2023-01-08T07:21:22.000Z,0
2023-01-08T07:22:39.000Z,0
2023-01-08T07:23:55.000Z,0
2023-01-08T07:25:11.000Z,0
2023-01-08T07:26:26.000Z,0
2023-01-08T07:27:41.000Z,0
2023-01-08T07:28:58.000Z,0
2023-01-08T07:30:14.000Z,0
2023-01-08T07:31:30.000Z,0
2023-01-08T07:32:45.000Z,0
2023-01-08T07:34:01.000Z,0
2023-01-08T07:35:17.000Z,0
2023-01-08T07:36:33.000Z,0
2023-01-08T07:37:49.000Z,0
2023-01-08T07:39:06.000Z,0
2023-01-08T07:40:22.000Z,5
2023-01-08T07:41:38.000Z,5
2023-01-08T07:42:54.000Z,5
2023-01-08T07:44:11.000Z,5
2023-01-08T07:45:27.000Z,5
2023-01-08T07:46:43.000Z,5
2023-01-08T07:47:59.000Z,5
2023-01-08T07:49:16.000Z,11
2023-01-08T07:50:31.000Z,11
2023-01-08T07:51:47.000Z,5
2023-01-08T07:53:03.000Z,5
2023-01-08T07:54:19.000Z,11
2023-01-08T07:55:36.000Z,11
2023-01-08T07:56:52.000Z,11
2023-01-08T07:58:08.000Z,11
2023-01-08T07:59:23.000Z,11
2023-01-08T08:00:39.000Z,11
2023-01-08T08:01:54.000Z,16
2023-01-08T08:03:09.000Z,16
2023-01-08T08:04:25.000Z,22
2023-01-08T08:05:42.000Z,22
2023-01-08T08:06:58.000Z,22
2023-01-08T08:08:14.000Z,28
2023-01-08T08:09:30.000Z,33
2023-01-08T08:10:47.000Z,50
2023-01-08T08:12:03.000Z,61
2023-01-08T08:13:19.000Z,61
2023-01-08T08:14:35.000Z,61
2023-01-08T08:15:52.000Z,61
2023-01-08T08:17:08.000Z,56
2023-01-08T08:18:24.000Z,61
2023-01-08T08:19:39.000Z,61
2023-01-08T08:20:55.000Z,61
2023-01-08T08:22:12.000Z,56
2023-01-08T08:23:28.000Z,56
2023-01-08T08:24:44.000Z,56
2023-01-08T08:26:00.000Z,56
2023-01-08T08:27:17.000Z,61
2023-01-08T08:28:33.000Z,61
2023-01-08T08:29:49.000Z,61
2023-01-08T08:31:04.000Z,67
2023-01-08T08:32:21.000Z,67
2023-01-08T08:33:37.000Z,73
2023-01-08T08:34:53.000Z,73
2023-01-08T08:36:09.000Z,73
2023-01-08T08:37:26.000Z,67
2023-01-08T08:38:41.000Z,73
2023-01-08T08:39:56.000Z,67
2023-01-08T08:41:11.000Z,67
2023-01-08T08:42:27.000Z,67
2023-01-08T08:43:43.000Z,67
2023-01-08T08:44:59.000Z,73
2023-01-08T08:46:15.000Z,73
2023-01-08T08:47:32.000Z,78
2023-01-08T08:48:48.000Z,84
2023-01-08T08:50:04.000Z,90
2023-01-08T08:51:20.000Z,95
2023-01-08T08:52:36.000Z,101
2023-01-08T08:53:53.000Z,101
2023-01-08T08:55:09.000Z,106
2023-01-08T08:56:25.000Z,106
2023-01-08T08:57:41.000Z,112
2023-01-08T08:58:57.000Z,112
2023-01-08T09:00:13.000Z,112
2023-01-08T09:01:29.000Z,118
2023-01-08T09:02:45.000Z,112
2023-01-08T09:04:02.000Z,112
2023-01-08T09:05:18.000Z,118
2023-01-08T09:06:34.000Z,118
2023-01-08T09:07:49.000Z,118
2023-01-08T09:09:05.000Z,123
2023-01-08T09:10:20.000Z,123
2023-01-08T09:11:35.000Z,129
2023-01-08T09:12:51.000Z,129
2023-01-08T09:14:08.000Z,135
2023-01-08T09:15:24.000Z,140
2023-01-08T09:16:40.000Z,140
2023-01-08T09:17:56.000Z,146
2023-01-08T09:19:12.000Z,146
2023-01-08T09:20:29.000Z,146
2023-01-08T09:21:45.000Z,146
2023-01-08T09:23:01.000Z,146
2023-01-08T09:24:17.000Z,146
2023-01-08T09:25:34.000Z,151
2023-01-08T09:26:50.000Z,151
2023-01-08T09:28:05.000Z,151
2023-01-08T09:29:21.000Z,151
2023-01-08T09:30:38.000Z,151
2023-01-08T09:31:54.000Z,151
2023-01-08T09:33:10.000Z,151
2023-01-08T09:34:26.000Z,151
2023-01-08T09:35:43.000Z,157
2023-01-08T09:36:58.000Z,157
2023-01-08T09:38:13.000Z,157
2023-01-08T09:39:28.000Z,157
2023-01-08T09:40:44.000Z,157
2023-01-08T09:42:00.000Z,157
2023-01-08T09:43:16.000Z,157
2023-01-08T09:44:32.000Z,157
2023-01-08T09:45:48.000Z,157
2023-01-08T09:47:05.000Z,163
2023-01-08T09:48:21.000Z,163
2023-01-08T09:49:37.000Z,163
2023-01-08T09:50:53.000Z,163
2023-01-08T09:52:10.000Z,163
2023-01-08T09:53:26.000Z,163
2023-01-08T09:54:42.000Z,163
2023-01-08T09:55:58.000Z,163
2023-01-08T09:57:14.000Z,163
2023-01-08T09:58:30.000Z,163
2023-01-08T09:59:46.000Z,163
2023-01-08T10:01:02.000Z,163
2023-01-08T10:02:19.000Z,168
2023-01-08T10:03:35.000Z,168
2023-01-08T10:04:51.000Z,168
2023-01-08T10:06:06.000Z,168
2023-01-08T10:07:22.000Z,168
2023-01-08T10:08:38.000Z,168
2023-01-08T10:09:53.000Z,168
2023-01-08T10:11:08.000Z,168
2023-01-08T10:12:25.000Z,168
2023-01-08T10:13:41.000Z,168
2023-01-08T10:14:57.000Z,168
2023-01-08T10:16:13.000Z,168
2023-01-08T10:17:29.000Z,168
2023-01-08T10:18:46.000Z,168
2023-01-08T10:20:02.000Z,168
2023-01-08T10:21:18.000Z,168
2023-01-08T10:22:34.000Z,174
2023-01-08T10:23:51.000Z,174
2023-01-08T10:25:07.000Z,174
2023-01-08T10:26:23.000Z,174
2023-01-08T10:27:38.000Z,174
2023-01-08T10:28:55.000Z,174
2023-01-08T10:30:11.000Z,174
2023-01-08T10:31:27.000Z,174
2023-01-08T10:32:43.000Z,174
2023-01-08T10:33:59.000Z,180
2023-01-08T10:35:16.000Z,180
2023-01-08T10:36:31.000Z,180
2023-01-08T10:37:46.000Z,180
2023-01-08T10:39:02.000Z,180
2023-01-08T10:40:19.000Z,180
2023-01-08T10:41:34.000Z,180
2023-01-08T10:42:49.000Z,180
2023-01-08T10:44:05.000Z,180
2023-01-08T10:45:22.000Z,180
2023-01-08T10:46:38.000Z,185
2023-01-08T10:47:54.000Z,185
2023-01-08T10:49:10.000Z,185
2023-01-08T10:50:27.000Z,185
2023-01-08T10:51:43.000Z,185
2023-01-08T10:52:59.000Z,191
2023-01-08T10:54:15.000Z,191
2023-01-08T10:55:32.000Z,196
2023-01-08T10:56:48.000Z,196
2023-01-08T10:58:04.000Z,196
2023-01-08T10:59:19.000Z,202
2023-01-08T11:00:36.000Z,202
2023-01-08T11:01:52.000Z,202
2023-01-08T11:03:08.000Z,208
2023-01-08T11:04:24.000Z,208
2023-01-08T11:05:40.000Z,208
2023-01-08T11:06:57.000Z,208
2023-01-08T11:08:13.000Z,208
2023-01-08T11:09:29.000Z,208
2023-01-08T11:10:45.000Z,208
2023-01-08T11:12:02.000Z,202
2023-01-08T11:13:18.000Z,196
2023-01-08T11:14:34.000Z,191
2023-01-08T11:15:49.000Z,196
2023-01-08T11:17:06.000Z,208
2023-01-08T11:18:22.000Z,202
2023-01-08T11:19:38.000Z,208
2023-01-08T11:20:53.000Z,208
2023-01-08T11:22:09.000Z,208
2023-01-08T11:23:24.000Z,202
2023-01-08T11:24:39.000Z,202
2023-01-08T11:25:55.000Z,196
2023-01-08T11:27:12.000Z,196
2023-01-08T11:28:28.000Z,202
2023-01-08T11:29:44.000Z,202
2023-01-08T11:31:00.000Z,202
2023-01-08T11:32:16.000Z,202
2023-01-08T11:33:33.000Z,202
2023-01-08T11:34:49.000Z,196
2023-01-08T11:36:05.000Z,196
2023-01-08T11:37:21.000Z,191
2023-01-08T11:38:38.000Z,196
2023-01-08T11:39:54.000Z,202
2023-01-08T11:41:09.000Z,202
2023-01-08T11:42:25.000Z,202
2023-01-08T11:43:42.000Z,208
2023-01-08T11:44:58.000Z,208
2023-01-08T11:46:14.000Z,208
2023-01-08T11:47:30.000Z,208
2023-01-08T11:48:47.000Z,208
2023-01-08T11:50:02.000Z,219
2023-01-08T11:51:17.000Z,219
2023-01-08T11:52:32.000Z,219
2023-01-08T11:53:48.000Z,213
2023-01-08T11:55:04.000Z,213
2023-01-08T11:56:20.000Z,213
2023-01-08T11:57:36.000Z,202
2023-01-08T11:58:52.000Z,202
2023-01-08T12:00:09.000Z,202
2023-01-08T12:01:25.000Z,196
2023-01-08T12:02:41.000Z,191
2023-01-08T12:03:57.000Z,191
2023-01-08T12:05:14.000Z,196
2023-01-08T12:06:30.000Z,213
2023-01-08T12:07:46.000Z,247
2023-01-08T12:09:02.000Z,275
2023-01-08T12:10:18.000Z,275
2023-01-08T12:11:34.000Z,258
2023-01-08T12:12:50.000Z,253
2023-01-08T12:14:06.000Z,270
2023-01-08T12:15:23.000Z,286
2023-01-08T12:16:39.000Z,270
2023-01-08T12:17:55.000Z,264
2023-01-08T12:19:11.000Z,264
2023-01-08T12:20:26.000Z,258
2023-01-08T12:21:42.000Z,225
2023-01-08T12:22:57.000Z,196
2023-01-08T12:24:12.000Z,202
2023-01-08T12:25:28.000Z,225
2023-01-08T12:26:45.000Z,241
2023-01-08T12:28:01.000Z,253
2023-01-08T12:29:17.000Z,253
2023-01-08T12:30:33.000Z,253
2023-01-08T12:31:50.000Z,253
2023-01-08T12:33:06.000Z,258
2023-01-08T12:34:22.000Z,247
2023-01-08T12:35:38.000Z,230
2023-01-08T12:36:55.000Z,225
2023-01-08T12:38:11.000Z,230
2023-01-08T12:39:27.000Z,247
2023-01-08T12:40:42.000Z,230
2023-01-08T12:41:59.000Z,219
2023-01-08T12:43:15.000Z,213
2023-01-08T12:44:31.000Z,196
2023-01-08T12:45:46.000Z,191
2023-01-08T12:47:03.000Z,174
2023-01-08T12:48:19.000Z,157
2023-01-08T12:49:34.000Z,151
2023-01-08T12:50:49.000Z,157
2023-01-08T12:52:05.000Z,157
2023-01-08T12:53:20.000Z,151
2023-01-08T12:54:36.000Z,123
2023-01-08T12:55:52.000Z,101
2023-01-08T12:57:08.000Z,84
2023-01-08T12:58:25.000Z,84
2023-01-08T12:59:41.000Z,118
2023-01-08T13:00:57.000Z,140
2023-01-08T13:02:13.000Z,191
2023-01-08T13:03:30.000Z,185
2023-01-08T13:04:46.000Z,146
2023-01-08T13:06:02.000Z,123
2023-01-08T13:07:18.000Z,101
2023-01-08T13:08:35.000Z,84
2023-01-08T13:09:50.000Z,95
2023-01-08T13:11:06.000Z,106
2023-01-08T13:12:22.000Z,118
2023-01-08T13:13:39.000Z,118
2023-01-08T13:14:55.000Z,106
2023-01-08T13:16:11.000Z,84
2023-01-08T13:17:27.000Z,61
2023-01-08T13:18:42.000Z,45
2023-01-08T13:19:58.000Z,28
2023-01-08T13:21:13.000Z,22
2023-01-08T13:22:28.000Z,22
2023-01-08T13:23:44.000Z,22
2023-01-08T13:25:01.000Z,22
2023-01-08T13:26:17.000Z,22
2023-01-08T13:27:33.000Z,16
2023-01-08T13:28:49.000Z,16
2023-01-08T13:30:06.000Z,16
2023-01-08T13:31:22.000Z,22
2023-01-08T13:32:38.000Z,33
2023-01-08T13:33:54.000Z,33
2023-01-08T13:35:11.000Z,33
2023-01-08T13:36:27.000Z,39
2023-01-08T13:37:43.000Z,45
2023-01-08T13:38:58.000Z,67
2023-01-08T13:40:15.000Z,106
2023-01-08T13:41:31.000Z,157
2023-01-08T13:42:47.000Z,230
2023-01-08T13:44:03.000Z,303
2023-01-08T13:45:19.000Z,371
2023-01-08T13:46:36.000Z,421
2023-01-08T13:47:52.000Z,421
2023-01-08T13:49:08.000Z,371
2023-01-08T13:50:24.000Z,309
2023-01-08T13:51:41.000Z,270
2023-01-08T13:52:57.000Z,241
2023-01-08T13:54:13.000Z,225
2023-01-08T13:55:28.000Z,196
2023-01-08T13:56:45.000Z,191
2023-01-08T13:58:01.000Z,180
2023-01-08T13:59:17.000Z,174
2023-01-08T14:00:33.000Z,168
2023-01-08T14:01:50.000Z,163
2023-01-08T14:03:06.000Z,157
2023-01-08T14:04:22.000Z,151
2023-01-08T14:05:38.000Z,146
2023-01-08T14:06:54.000Z,140
2023-01-08T14:08:11.000Z,140
2023-01-08T14:09:27.000Z,140
2023-01-08T14:10:43.000Z,135
2023-01-08T14:11:58.000Z,135
2023-01-08T14:13:15.000Z,135
2023-01-08T14:14:31.000Z,129
2023-01-08T14:15:47.000Z,129
2023-01-08T14:17:03.000Z,129
2023-01-08T14:18:20.000Z,129
2023-01-08T14:19:36.000Z,123
2023-01-08T14:20:52.000Z,123
2023-01-08T14:22:08.000Z,123
2023-01-08T14:23:25.000Z,123
2023-01-08T14:24:41.000Z,118
2023-01-08T14:25:57.000Z,118
2023-01-08T14:27:13.000Z,118
2023-01-08T14:28:28.000Z,118
2023-01-08T14:29:45.000Z,112
2023-01-08T14:31:00.000Z,112
2023-01-08T14:32:15.000Z,112
2023-01-08T14:33:30.000Z,112
2023-01-08T14:34:46.000Z,106
2023-01-08T14:36:02.000Z,106
2023-01-08T14:37:18.000Z,106
2023-01-08T14:38:34.000Z,106
2023-01-08T14:39:51.000Z,101
2023-01-08T14:41:07.000Z,101
2023-01-08T14:42:23.000Z,101
2023-01-08T14:43:39.000Z,95
2023-01-08T14:44:56.000Z,95
2023-01-08T14:46:12.000Z,95
2023-01-08T14:47:28.000Z,90
2023-01-08T14:48:44.000Z,90
2023-01-08T14:50:01.000Z,90
2023-01-08T14:51:16.000Z,84
2023-01-08T14:52:32.000Z,84
2023-01-08T14:53:48.000Z,78
2023-01-08T14:55:04.000Z,78
2023-01-08T14:56:21.000Z,78
2023-01-08T14:57:37.000Z,73
2023-01-08T14:58:53.000Z,73
2023-01-08T15:00:09.000Z,67
2023-01-08T15:01:26.000Z,67
2023-01-08T15:02:42.000Z,67
2023-01-08T15:03:58.000Z,67
2023-01-08T15:05:14.000Z,61
2023-01-08T15:06:31.000Z,61
2023-01-08T15:07:46.000Z,56
2023-01-08T15:09:02.000Z,56
2023-01-08T15:10:18.000Z,50
2023-01-08T15:11:35.000Z,50
2023-01-08T15:12:51.000Z,45
2023-01-08T15:14:07.000Z,45
2023-01-08T15:15:23.000Z,45
2023-01-08T15:16:39.000Z,39
2023-01-08T15:17:56.000Z,39
2023-01-08T15:19:12.000Z,33
2023-01-08T15:20:28.000Z,33
2023-01-08T15:21:44.000Z,33
2023-01-08T15:23:01.000Z,28
2023-01-08T15:24:16.000Z,28
2023-01-08T15:25:32.000Z,28
2023-01-08T15:26:48.000Z,22
2023-01-08T15:28:05.000Z,22
2023-01-08T15:29:21.000Z,22
2023-01-08T15:30:37.000Z,16
2023-01-08T15:31:53.000Z,16
2023-01-08T15:33:10.000Z,16
2023-01-08T15:34:26.000Z,16
2023-01-08T15:36:58.000Z,11
2023-01-08T15:38:14.000Z,11
2023-01-08T15:39:31.000Z,11
2023-01-08T15:40:46.000Z,11
2023-01-08T15:42:02.000Z,16
2023-01-08T15:43:18.000Z,5
2023-01-08T15:44:35.000Z,5
2023-01-08T15:45:51.000Z,5
2023-01-08T15:47:07.000Z,5
2023-01-08T15:48:23.000Z,5
2023-01-08T15:49:40.000Z,5
2023-01-08T15:50:56.000Z,0
2023-01-08T15:52:12.000Z,0
2023-01-08T15:53:28.000Z,0
2023-01-08T15:54:45.000Z,0
2023-01-08T15:56:01.000Z,0
2023-01-08T15:57:16.000Z,0
2023-01-08T15:58:32.000Z,0
2023-01-08T15:59:48.000Z,11
2023-01-08T16:01:05.000Z,11
2023-01-08T16:02:21.000Z,5
2023-01-08T16:03:37.000Z,5
2023-01-08T16:04:53.000Z,5
2023-01-08T16:06:10.000Z,5
2023-01-08T16:07:26.000Z,5
2023-01-08T16:08:42.000Z,5
2023-01-08T16:09:58.000Z,5
2023-01-08T16:11:15.000Z,5
2023-01-08T16:12:31.000Z,5
2023-01-08T16:13:46.000Z,5
2023-01-08T16:15:02.000Z,5
2023-01-08T16:16:19.000Z,5
2023-01-08T16:17:35.000Z,5
2023-01-08T16:18:51.000Z,5
2023-01-08T16:20:07.000Z,5
2023-01-08T16:21:23.000Z,5
2023-01-08T16:22:40.000Z,5
2023-01-08T16:23:56.000Z,5
2023-01-08T16:25:12.000Z,5
2023-01-08T16:26:28.000Z,5
2023-01-08T16:27:45.000Z,5
2023-01-08T16:29:01.000Z,5
2023-01-08T16:30:16.000Z,5
2023-01-08T16:31:32.000Z,5
2023-01-08T16:32:49.000Z,5
2023-01-08T16:34:05.000Z,5
2023-01-08T16:35:21.000Z,5
2023-01-08T16:36:37.000Z,5
2023-01-08T16:37:54.000Z,5
2023-01-08T16:39:10.000Z,5
2023-01-08T16:40:26.000Z,5
2023-01-08T16:41:42.000Z,5
2023-01-08T16:42:58.000Z,5
2023-01-08T16:44:15.000Z,5
2023-01-08T16:45:31.000Z,5
2023-01-08T16:46:46.000Z,5
2023-01-08T16:48:02.000Z,5
2023-01-08T16:49:19.000Z,5
2023-01-08T16:50:35.000Z,5
2023-01-08T16:51:51.000Z,5
2023-01-08T16:53:07.000Z,5
2023-01-08T16:54:24.000Z,5
2023-01-08T16:55:40.000Z,5
2023-01-08T16:56:56.000Z,5
2023-01-08T16:58:12.000Z,5
2023-01-08T16:59:29.000Z,5
2023-01-08T17:00:44.000Z,5
2023-01-08T17:02:00.000Z,5
2023-01-08T17:03:16.000Z,5
2023-01-08T17:04:32.000Z,5
2023-01-08T17:05:49.000Z,5
2023-01-08T17:07:05.000Z,5
2023-01-08T17:08:21.000Z,5
2023-01-08T17:09:37.000Z,5
2023-01-08T17:10:54.000Z,5
2023-01-08T17:12:10.000Z,5
2023-01-08T17:13:26.000Z,5
2023-01-08T17:14:42.000Z,5
2023-01-08T17:15:59.000Z,5
2023-01-08T17:17:14.000Z,5
2023-01-08T17:18:30.000Z,5
2023-01-08T17:19:46.000Z,5
2023-01-08T17:21:03.000Z,5
2023-01-08T17:22:19.000Z,5
2023-01-08T17:23:35.000Z,5
2023-01-08T17:24:51.000Z,5
2023-01-08T17:26:07.000Z,5
2023-01-08T17:27:24.000Z,5
2023-01-08T17:28:40.000Z,5
2023-01-08T17:29:56.000Z,5
2023-01-08T17:31:12.000Z,5
2023-01-08T17:32:29.000Z,5
2023-01-08T17:33:44.000Z,5
2023-01-08T17:35:00.000Z,5
2023-01-08T17:36:16.000Z,5
2023-01-08T17:37:33.000Z,5
2023-01-08T17:38:49.000Z,5
2023-01-08T17:40:05.000Z,5
2023-01-08T17:41:21.000Z,5
2023-01-08T17:42:38.000Z,5
2023-01-08T17:43:54.000Z,5
2023-01-08T17:45:10.000Z,5
2023-01-08T17:46:26.000Z,5
2023-01-08T17:47:42.000Z,5
2023-01-08T17:48:59.000Z,5
2023-01-08T17:50:14.000Z,5
2023-01-08T17:51:30.000Z,5
2023-01-08T17:52:46.000Z,5
2023-01-08T17:54:03.000Z,5
2023-01-08T17:55:19.000Z,5
2023-01-08T17:56:35.000Z,5
2023-01-08T17:57:51.000Z,5
2023-01-08T17:59:08.000Z,5
2023-01-08T18:00:24.000Z,5
2023-01-08T18:01:40.000Z,5
2023-01-08T18:02:56.000Z,5
2023-01-08T18:04:13.000Z,5
2023-01-08T18:05:29.000Z,5
2023-01-08T18:06:44.000Z,5
2023-01-08T18:08:00.000Z,5
2023-01-08T18:09:16.000Z,5
2023-01-08T18:10:33.000Z,5
2023-01-08T18:11:49.000Z,5
2023-01-08T18:13:05.000Z,5
2023-01-08T18:14:21.000Z,5
2023-01-08T18:15:38.000Z,5
2023-01-08T18:16:54.000Z,5